Time;durP1;ratioP1;P1;durP2;ratioP2;P2;SDS_P1;SDS_P2;PMS_P1;PMS_P2;Temp;Humidity;BMP_temperature;BMP_pressure;BME280_temperature;BME280_humidity;BME280_pressure;Samples;Min_cycle;Max_cycle;Signal;HPM_P1;HPM_P2
2022/11/24 00:01:29;;;;;;;14.68;5.32;;;7.10;99.90;;;;;;6180522;23;20020;-89
2022/11/24 00:04:02;;;;;;;16.98;5.68;;;7.10;99.90;;;;;;6205028;23;20055;-88
2022/11/24 00:06:30;;;;;;;17.08;5.70;;;7.10;99.90;;;;;;6180221;23;20024;-86
2022/11/24 00:08:56;;;;;;;16.15;6.25;;;7.10;99.90;;;;;;6180219;23;20103;-87
2022/11/24 00:11:32;;;;;;;22.10;5.97;;;7.80;99.90;;;;;;6179785;23;20017;-89
2022/11/24 00:13:58;;;;;;;26.50;6.63;;;7.20;99.90;;;;;;6180385;23;20452;-89
2022/11/24 00:16:29;;;;;;;18.42;5.80;;;8.50;99.90;;;;;;6179492;23;20028;-87
2022/11/24 00:18:59;;;;;;;18.85;5.10;;;7.30;99.90;;;;;;6178759;23;20016;-88
2022/11/24 00:21:26;;;;;;;19.95;5.93;;;7.20;99.90;;;;;;6179529;23;20108;-88
2022/11/24 00:23:54;;;;;;;24.67;5.80;;;7.30;99.90;;;;;;6178758;23;20013;-90
2022/11/24 00:26:26;;;;;;;27.65;5.97;;;6.30;99.90;;;;;;6153817;23;20016;-88
2022/11/24 00:28:55;;;;;;;20.73;5.80;;;8.50;99.90;;;;;;6203667;23;20301;-89
2022/11/24 00:31:25;;;;;;;17.25;6.18;;;7.40;99.90;;;;;;6180394;23;20316;-88
2022/11/24 00:33:54;;;;;;;23.88;5.78;;;8.20;99.90;;;;;;6178297;23;20145;-87
2022/11/24 00:36:22;;;;;;;20.92;5.90;;;7.60;99.90;;;;;;6203083;23;20031;-89
2022/11/24 00:38:55;;;;;;;22.63;5.70;;;6.30;99.90;;;;;;6179253;23;20025;-89
2022/11/24 00:41:25;;;;;;;16.10;5.07;;;7.70;99.90;;;;;;6178762;23;20021;-88
2022/11/24 00:43:51;;;;;;;20.83;5.30;;;7.50;99.90;;;;;;6177595;23;20086;-89
2022/11/24 00:46:18;;;;;;;25.35;5.78;;;7.70;99.90;;;;;;6177536;23;20020;-90
2022/11/24 00:48:47;;;;;;;20.25;5.20;;;7.40;99.90;;;;;;6153843;23;20024;-89
2022/11/24 00:51:17;;;;;;;14.30;4.43;;;7.30;99.90;;;;;;6179042;23;20058;-87
2022/11/24 00:53:46;;;;;;;18.80;4.90;;;8.60;99.90;;;;;;6201875;23;20055;-90
2022/11/24 00:56:12;;;;;;;22.38;5.45;;;7.50;99.90;;;;;;6178272;23;20087;-89
2022/11/24 00:58:40;;;;;;;24.15;5.00;;;7.30;99.90;;;;;;6177664;23;20095;-87
2022/11/24 01:01:18;;;;;;;18.42;4.40;;;7.40;99.90;;;;;;6178111;23;20017;-87
2022/11/24 01:03:47;;;;;;;15.30;4.60;;;7.60;99.90;;;;;;6177990;23;20025;-88
2022/11/24 01:06:26;;;;;;;15.95;4.40;;;6.10;99.90;;;;;;6178404;23;20053;-88
2022/11/24 01:08:53;;;;;;;20.70;4.47;;;7.50;99.90;;;;;;6179178;23;20470;-86
2022/11/24 01:12:00;;;;;;;26.17;4.57;;;7.40;99.90;;;;;;6179323;23;20024;-87
2022/11/24 01:14:23;;;;;;;12.02;3.72;;;7.50;99.90;;;;;;6204444;23;20076;-88
2022/11/24 01:16:49;;;;;;;16.50;4.43;;;7.40;99.90;;;;;;6178934;23;20021;-89
2022/11/24 01:19:18;;;;;;;30.73;4.90;;;7.40;99.90;;;;;;6153725;23;20023;-89
2022/11/24 01:21:47;;;;;;;23.15;4.75;;;7.40;99.90;;;;;;6205075;23;20020;-88
2022/11/24 01:24:15;;;;;;;23.60;4.65;;;9.50;99.90;;;;;;6184743;23;20024;-87
2022/11/24 01:26:43;;;;;;;19.75;4.30;;;7.50;99.90;;;;;;6178529;23;20021;-88
2022/11/24 01:29:10;;;;;;;16.95;3.97;;;7.50;99.90;;;;;;6178252;23;20024;-89
2022/11/24 01:31:39;;;;;;;19.90;4.30;;;7.80;99.90;;;;;;6179177;23;20025;-89
2022/11/24 01:34:05;;;;;;;17.27;4.05;;;7.60;99.90;;;;;;6204303;23;20024;-89
2022/11/24 01:36:34;;;;;;;21.08;3.67;;;7.50;99.90;;;;;;6176616;23;20024;-89
2022/11/24 01:39:00;;;;;;;16.00;3.63;;;7.60;99.90;;;;;;6165733;23;20029;-81
2022/11/24 01:41:26;;;;;;;14.02;3.28;;;8.50;99.90;;;;;;6150786;23;20384;-81
2022/11/24 01:43:53;;;;;;;12.68;3.25;;;7.60;99.90;;;;;;6174111;23;20017;-81
2022/11/24 01:46:44;;;;;;;15.88;3.55;;;8.50;99.90;;;;;;6174792;23;20027;-81
2022/11/24 01:49:17;;;;;;;15.90;3.65;;;7.60;99.90;;;;;;6174852;23;20017;-81
2022/11/24 01:51:52;;;;;;;14.15;3.00;;;7.50;99.90;;;;;;6175113;23;20092;-81
2022/11/24 01:54:23;;;;;;;15.40;3.78;;;7.50;99.90;;;;;;6154613;23;20017;-80
2022/11/24 01:56:53;;;;;;;14.02;2.83;;;7.50;99.90;;;;;;6170304;23;20021;-80
2022/11/24 01:59:20;;;;;;;11.98;3.58;;;9.00;99.90;;;;;;6150423;23;20025;-82
2022/11/24 02:01:50;;;;;;;17.13;3.53;;;8.70;99.90;;;;;;6124802;23;20025;-82
2022/11/24 02:04:18;;;;;;;14.60;3.15;;;7.50;99.90;;;;;;6150407;23;20017;-81
2022/11/24 02:06:46;;;;;;;15.20;3.58;;;8.30;99.90;;;;;;6190627;23;20075;-81
2022/11/24 02:09:27;;;;;;;14.18;3.38;;;7.70;99.90;;;;;;6154498;23;20095;-82
2022/11/24 02:11:53;;;;;;;18.00;3.80;;;7.50;99.90;;;;;;6148060;23;20028;-82
2022/11/24 02:14:21;;;;;;;14.52;3.25;;;8.30;99.90;;;;;;6173620;23;20021;-81
2022/11/24 02:16:50;;;;;;;14.02;3.50;;;7.40;99.90;;;;;;6148066;23;20025;-81
2022/11/24 02:19:54;;;;;;;16.67;3.47;;;7.40;99.90;;;;;;6150994;23;20077;-82
2022/11/24 02:22:55;;;;;;;18.80;3.67;;;7.40;99.90;;;;;;6091091;23;20027;-82
2022/11/24 02:25:24;;;;;;;17.20;3.00;;;7.30;99.90;;;;;;6150179;23;20053;-82
2022/11/24 02:27:51;;;;;;;14.23;3.08;;;7.40;99.90;;;;;;6150068;23;20358;-81
2022/11/24 02:30:17;;;;;;;16.65;3.08;;;7.30;99.90;;;;;;6150299;23;20092;-81
2022/11/24 02:32:43;;;;;;;9.75;3.53;;;7.30;99.90;;;;;;6125033;23;20518;-82
2022/11/24 02:35:11;;;;;;;14.43;3.03;;;8.00;99.90;;;;;;6149389;23;20070;-82
2022/11/24 02:37:36;;;;;;;12.57;3.97;;;7.30;99.90;;;;;;6126299;23;20025;-81
2022/11/24 02:40:03;;;;;;;13.95;3.47;;;7.30;99.90;;;;;;6168026;23;20314;-81
2022/11/24 02:42:35;;;;;;;12.70;3.67;;;7.20;99.90;;;;;;6150463;23;20449;-81
2022/11/24 02:45:01;;;;;;;13.77;3.35;;;7.20;99.90;;;;;;6174109;23;20087;-78
2022/11/24 02:47:27;;;;;;;12.32;2.58;;;7.10;99.90;;;;;;6150831;23;20017;-82
2022/11/24 02:49:52;;;;;;;9.55;3.20;;;7.10;99.90;;;;;;6149835;23;20013;-82
2022/11/24 02:52:18;;;;;;;15.02;2.90;;;7.10;99.90;;;;;;6126048;23;20056;-83
2022/11/24 02:54:44;;;;;;;12.95;3.30;;;7.10;99.90;;;;;;6174347;23;20095;-81
2022/11/24 02:57:10;;;;;;;11.57;2.83;;;7.10;99.90;;;;;;6175731;23;20013;-82
2022/11/24 02:59:36;;;;;;;13.35;2.90;;;7.40;99.90;;;;;;6151241;23;20021;-82
2022/11/24 03:02:02;;;;;;;12.40;2.78;;;7.70;99.90;;;;;;6174725;23;20056;-81
2022/11/24 03:04:28;;;;;;;14.45;2.92;;;7.10;99.90;;;;;;6125340;23;20564;-82
2022/11/24 03:06:54;;;;;;;10.90;3.03;;;7.10;99.90;;;;;;6149476;23;20099;-81
2022/11/24 03:09:19;;;;;;;12.68;3.00;;;7.10;99.90;;;;;;6126517;23;20733;-82
2022/11/24 03:11:45;;;;;;;16.92;3.60;;;7.50;99.90;;;;;;6174851;23;20020;-80
2022/11/24 03:14:11;;;;;;;14.68;3.05;;;7.10;99.90;;;;;;6175544;23;20384;-81
2022/11/24 03:16:37;;;;;;;15.25;3.55;;;7.50;99.90;;;;;;6149946;23;20056;-81
2022/11/24 03:19:03;;;;;;;15.40;3.03;;;7.20;99.90;;;;;;6149849;23;20127;-81
2022/11/24 03:21:29;;;;;;;13.10;2.95;;;7.90;99.90;;;;;;6149453;23;20021;-82
2022/11/24 03:23:55;;;;;;;15.85;4.28;;;7.20;99.90;;;;;;6101391;23;20606;-83
2022/11/24 03:26:22;;;;;;;12.10;3.63;;;7.30;99.90;;;;;;6126621;23;20021;-80
2022/11/24 03:28:48;;;;;;;13.20;2.90;;;7.30;99.90;;;;;;6175000;23;20016;-81
2022/11/24 03:31:14;;;;;;;14.05;3.33;;;7.30;99.90;;;;;;6176076;23;20381;-82
2022/11/24 03:33:40;;;;;;;11.63;3.10;;;7.30;99.90;;;;;;6151037;23;20021;-81
2022/11/24 03:36:07;;;;;;;15.30;3.50;;;7.40;99.90;;;;;;6150272;23;20900;-81
2022/11/24 03:38:33;;;;;;;14.15;3.58;;;7.40;99.90;;;;;;6150612;23;20025;-81
2022/11/24 03:40:58;;;;;;;12.30;2.78;;;7.40;99.90;;;;;;6174847;23;20040;-81
2022/11/24 03:43:24;;;;;;;12.65;2.95;;;7.40;99.90;;;;;;6126348;23;20144;-82
2022/11/24 03:45:50;;;;;;;16.58;3.25;;;7.40;99.90;;;;;;6124981;23;20467;-81
2022/11/24 03:48:19;;;;;;;17.02;3.17;;;7.40;99.90;;;;;;6175908;23;20032;-81
2022/11/24 03:50:53;;;;;;;12.05;2.88;;;7.40;99.90;;;;;;6175299;23;20017;-82
2022/11/24 03:53:19;;;;;;;10.90;3.05;;;7.40;99.90;;;;;;6151241;23;20120;-81
2022/11/24 03:55:45;;;;;;;19.63;3.72;;;7.40;99.90;;;;;;6126658;23;20099;-81
2022/11/24 03:58:10;;;;;;;18.58;3.20;;;7.50;99.90;;;;;;6150790;23;20072;-82
2022/11/24 04:00:36;;;;;;;15.85;3.90;;;7.40;99.90;;;;;;6151255;23;20035;-82
2022/11/24 04:03:02;;;;;;;14.25;3.30;;;8.60;99.90;;;;;;6132117;23;20004;-82
2022/11/24 04:05:27;;;;;;;13.40;3.45;;;7.30;99.90;;;;;;6174741;23;20024;-81
2022/11/24 04:07:56;;;;;;;17.42;3.25;;;7.30;99.90;;;;;;6150607;23;20021;-81
2022/11/24 04:10:23;;;;;;;12.07;3.33;;;7.50;99.90;;;;;;6126741;23;20083;-81
2022/11/24 04:12:49;;;;;;;13.13;3.08;;;7.30;99.90;;;;;;6125999;23;20348;-81
2022/11/24 04:15:17;;;;;;;9.57;3.40;;;7.30;99.90;;;;;;6149843;23;20020;-82
2022/11/24 04:17:45;;;;;;;11.02;3.28;;;7.30;99.90;;;;;;6161639;23;20067;-82
2022/11/24 04:20:12;;;;;;;19.48;3.22;;;7.30;99.90;;;;;;6149637;23;20024;-81
2022/11/24 04:22:38;;;;;;;18.35;3.08;;;7.30;99.90;;;;;;6174674;23;20448;-82
2022/11/24 04:25:04;;;;;;;18.90;3.58;;;7.60;99.90;;;;;;6148114;23;20021;-81
2022/11/24 04:27:34;;;;;;;15.50;2.88;;;7.20;99.90;;;;;;6125206;23;20025;-81
2022/11/24 04:30:00;;;;;;;12.45;3.15;;;7.20;99.90;;;;;;6124546;23;20031;-81
2022/11/24 04:32:26;;;;;;;14.52;3.08;;;7.70;99.90;;;;;;6174106;23;20030;-81
2022/11/24 04:34:52;;;;;;;13.45;3.30;;;7.30;99.90;;;;;;6172803;23;20025;-80
2022/11/24 04:37:18;;;;;;;11.60;3.10;;;7.30;99.90;;;;;;6148822;23;20053;-80
2022/11/24 04:39:45;;;;;;;9.63;2.95;;;7.30;99.90;;;;;;6148306;23;20063;-81
2022/11/24 04:42:11;;;;;;;12.13;2.83;;;7.30;99.90;;;;;;6172973;23;20020;-81
2022/11/24 04:44:37;;;;;;;11.77;3.00;;;7.40;99.90;;;;;;6123987;23;20068;-81
2022/11/24 04:47:03;;;;;;;13.27;3.20;;;7.40;99.90;;;;;;6148097;23;20027;-82
2022/11/24 04:49:29;;;;;;;13.50;3.08;;;7.40;99.90;;;;;;6173554;23;20089;-81
2022/11/24 04:51:55;;;;;;;13.57;3.45;;;7.40;99.90;;;;;;6173414;23;20055;-81
2022/11/24 04:54:21;;;;;;;10.20;2.20;;;7.40;99.90;;;;;;6148404;23;20017;-79
2022/11/24 04:56:52;;;;;;;14.90;3.00;;;7.40;99.90;;;;;;6125414;23;20426;-81
2022/11/24 04:59:19;;;;;;;11.75;2.58;;;7.80;99.90;;;;;;6174053;23;20028;-82
2022/11/24 05:01:46;;;;;;;11.32;2.17;;;7.40;99.90;;;;;;6148733;23;20016;-81
2022/11/24 05:04:13;;;;;;;10.48;2.35;;;7.40;99.90;;;;;;6148046;23;20017;-81
2022/11/24 05:06:39;;;;;;;10.18;2.70;;;7.40;99.90;;;;;;6123382;23;20021;-81
2022/11/24 05:09:06;;;;;;;11.93;2.53;;;7.50;99.90;;;;;;6172661;23;20009;-81
2022/11/24 05:11:32;;;;;;;13.80;2.75;;;7.40;99.90;;;;;;6148401;23;20021;-81
2022/11/24 05:13:59;;;;;;;10.52;2.65;;;7.30;99.90;;;;;;6172202;23;20096;-82
2022/11/24 05:16:24;;;;;;;14.75;2.42;;;7.30;99.90;;;;;;6123425;23;20021;-83
2022/11/24 05:18:50;;;;;;;11.25;2.20;;;7.30;99.90;;;;;;6148630;23;20036;-81
2022/11/24 05:21:16;;;;;;;18.83;3.72;;;7.40;99.90;;;;;;6147777;23;20021;-82
2022/11/24 05:23:42;;;;;;;14.38;2.65;;;7.60;99.90;;;;;;6124278;23;20092;-82
2022/11/24 05:26:07;;;;;;;14.05;2.40;;;7.80;99.90;;;;;;6148391;23;20035;-81
2022/11/24 05:28:33;;;;;;;15.00;2.67;;;7.90;99.90;;;;;;6149727;23;20021;-81
2022/11/24 05:31:03;;;;;;;17.30;2.65;;;7.90;99.90;;;;;;6124300;23;20472;-80
2022/11/24 05:33:32;;;;;;;14.93;2.78;;;8.00;99.90;;;;;;6174367;23;20017;-81
2022/11/24 05:36:05;;;;;;;14.73;2.90;;;8.00;99.90;;;;;;6101752;23;20404;-81
2022/11/24 05:38:32;;;;;;;15.80;2.30;;;8.00;99.90;;;;;;6174363;23;20060;-82
2022/11/24 05:41:02;;;;;;;11.75;2.90;;;8.00;99.90;;;;;;6124463;23;20443;-81
2022/11/24 05:43:28;;;;;;;13.73;2.35;;;8.00;99.90;;;;;;6124546;23;20087;-80
2022/11/24 05:45:54;;;;;;;13.07;2.10;;;8.20;99.90;;;;;;6147516;23;20021;-81
2022/11/24 05:48:19;;;;;;;11.88;2.30;;;8.70;99.90;;;;;;6123660;23;20021;-82
2022/11/24 05:50:51;;;;;;;12.68;2.20;;;8.20;99.90;;;;;;6100307;23;20020;-82
2022/11/24 05:53:17;;;;;;;9.60;2.22;;;9.00;99.90;;;;;;6102370;23;20024;-82
2022/11/24 05:55:42;;;;;;;8.98;2.15;;;8.00;99.90;;;;;;6101616;23;20076;-82
2022/11/24 05:58:09;;;;;;;12.23;2.30;;;8.00;99.90;;;;;;6101091;23;20017;-83
2022/11/24 06:00:35;;;;;;;12.35;2.53;;;8.00;99.90;;;;;;6126756;23;20021;-83
2022/11/24 06:03:02;;;;;;;10.02;2.22;;;7.90;99.90;;;;;;6126991;23;20056;-83
2022/11/24 06:05:28;;;;;;;10.88;2.50;;;7.90;99.90;;;;;;6103142;23;20028;-83
2022/11/24 06:07:54;;;;;;;10.82;2.35;;;7.90;99.90;;;;;;6128168;23;20020;-83
2022/11/24 06:10:22;;;;;;;12.15;1.95;;;8.30;99.90;;;;;;6128920;23;20028;-82
2022/11/24 06:12:49;;;;;;;9.40;2.20;;;7.90;99.90;;;;;;6135218;23;20012;-82
2022/11/24 06:15:16;;;;;;;10.00;1.70;;;7.80;99.90;;;;;;6169472;23;20021;-83
2022/11/24 06:17:42;;;;;;;9.65;2.28;;;7.80;99.90;;;;;;6152427;23;20504;-84
2022/11/24 06:20:12;;;;;;;10.48;2.17;;;7.90;99.90;;;;;;6108427;23;20064;-87
2022/11/24 06:22:37;;;;;;;13.27;2.60;;;7.80;99.90;;;;;;6156185;23;20029;-82
2022/11/24 06:25:03;;;;;;;9.13;1.95;;;7.80;99.90;;;;;;6157680;23;20026;-81
2022/11/24 06:27:29;;;;;;;13.27;2.47;;;7.80;99.90;;;;;;6114769;23;20025;-84
2022/11/24 06:29:55;;;;;;;15.13;2.10;;;8.50;99.90;;;;;;6150332;23;20324;-82
2022/11/24 06:32:21;;;;;;;10.48;1.90;;;7.70;99.90;;;;;;6100820;23;20021;-82
2022/11/24 06:34:46;;;;;;;14.35;2.22;;;7.70;99.90;;;;;;6125310;23;20024;-81
2022/11/24 06:37:12;;;;;;;9.57;2.20;;;7.80;99.90;;;;;;6101184;23;20017;-83
2022/11/24 06:39:38;;;;;;;11.63;2.17;;;7.80;99.90;;;;;;6138027;23;20025;-84
2022/11/24 06:42:03;;;;;;;14.32;1.98;;;7.80;99.90;;;;;;6100875;23;20123;-83
2022/11/24 06:44:29;;;;;;;19.08;2.65;;;7.80;99.90;;;;;;6101396;23;20072;-81
2022/11/24 06:46:55;;;;;;;18.75;3.00;;;8.10;99.90;;;;;;6101243;23;20017;-80
2022/11/24 06:49:21;;;;;;;22.15;3.08;;;9.20;99.90;;;;;;6125362;23;20453;-83
2022/11/24 06:51:46;;;;;;;18.48;2.72;;;8.50;99.90;;;;;;6149478;23;20021;-82
2022/11/24 06:54:15;;;;;;;13.60;2.03;;;8.00;99.90;;;;;;6148817;23;20013;-81
2022/11/24 06:56:40;;;;;;;13.48;2.33;;;8.00;99.90;;;;;;6149840;23;20021;-80
2022/11/24 06:59:06;;;;;;;14.63;2.63;;;8.00;99.90;;;;;;6149738;23;20625;-81
2022/11/24 07:01:32;;;;;;;14.38;3.10;;;8.70;99.90;;;;;;6125189;23;20123;-80
2022/11/24 07:03:58;;;;;;;13.07;3.28;;;8.00;99.90;;;;;;6173445;23;20036;-81
2022/11/24 07:06:25;;;;;;;17.27;2.72;;;8.00;99.90;;;;;;6171200;23;20025;-82
2022/11/24 07:08:51;;;;;;;13.07;2.50;;;8.00;99.90;;;;;;6149087;23;20021;-83
2022/11/24 07:11:20;;;;;;;12.20;2.08;;;8.00;99.90;;;;;;6174558;23;20064;-82
2022/11/24 07:13:47;;;;;;;14.75;1.95;;;8.00;99.90;;;;;;6174933;23;20020;-82
2022/11/24 07:16:14;;;;;;;10.10;2.03;;;8.00;99.90;;;;;;6149388;23;20101;-84
2022/11/24 07:18:39;;;;;;;10.20;1.85;;;8.00;99.90;;;;;;6150317;23;20518;-84
2022/11/24 07:21:05;;;;;;;10.07;1.95;;;7.90;99.90;;;;;;6150400;23;20013;-80
2022/11/24 07:23:31;;;;;;;11.18;2.10;;;7.90;99.90;;;;;;6150852;23;20469;-82
2022/11/24 07:26:01;;;;;;;9.88;1.98;;;7.90;99.90;;;;;;6150230;23;20035;-82
2022/11/24 07:28:27;;;;;;;13.57;1.90;;;7.80;99.90;;;;;;6175472;23;20025;-83
2022/11/24 07:30:53;;;;;;;6.15;1.70;;;7.80;99.90;;;;;;6176838;23;20186;-82
2022/11/24 07:33:23;;;;;;;9.70;1.80;;;7.80;99.90;;;;;;6101923;23;20052;-81
2022/11/24 07:35:50;;;;;;;8.65;2.20;;;7.80;99.90;;;;;;6152256;23;20072;-80
2022/11/24 07:38:16;;;;;;;10.32;2.10;;;8.00;99.90;;;;;;6150243;23;20025;-81
2022/11/24 07:40:42;;;;;;;10.48;2.13;;;8.90;99.90;;;;;;6148952;23;20032;-81
2022/11/24 07:43:08;;;;;;;10.82;2.17;;;7.60;99.90;;;;;;6100483;23;20020;-80
2022/11/24 07:45:33;;;;;;;11.30;2.40;;;7.60;99.90;;;;;;6147868;23;20535;-81
2022/11/24 07:47:59;;;;;;;10.15;3.00;;;7.60;99.90;;;;;;6075845;23;20025;-82
2022/11/24 07:50:25;;;;;;;9.55;2.42;;;7.60;99.90;;;;;;6098692;23;20741;-78
2022/11/24 07:52:50;;;;;;;11.57;2.55;;;7.50;99.90;;;;;;6146040;23;20021;-80
2022/11/24 07:55:16;;;;;;;8.05;2.55;;;7.50;99.90;;;;;;6146354;23;20020;-77
2022/11/24 07:57:42;;;;;;;11.93;2.30;;;7.50;99.90;;;;;;6146512;23;20021;-78
2022/11/24 08:00:08;;;;;;;9.65;2.03;;;7.50;99.90;;;;;;6124453;23;20025;-82
2022/11/24 08:02:34;;;;;;;8.88;1.90;;;7.60;99.90;;;;;;6126769;23;20020;-84
2022/11/24 08:05:00;;;;;;;11.38;2.15;;;8.00;99.90;;;;;;6101978;23;20310;-83
2022/11/24 08:07:26;;;;;;;9.77;2.45;;;7.60;99.90;;;;;;6102155;23;20108;-86
2022/11/24 08:09:51;;;;;;;10.25;2.30;;;7.00;99.90;;;;;;6101588;23;20060;-85
2022/11/24 08:12:20;;;;;;;7.45;2.00;;;7.70;99.90;;;;;;6076782;23;20025;-85
2022/11/24 08:14:49;;;;;;;8.55;2.03;;;7.60;99.90;;;;;;6101127;23;20150;-84
2022/11/24 08:17:16;;;;;;;8.10;2.22;;;7.70;99.90;;;;;;6127347;23;20028;-85
2022/11/24 08:19:42;;;;;;;10.50;2.03;;;7.60;99.90;;;;;;6079910;23;20025;-84
2022/11/24 08:22:08;;;;;;;7.65;1.80;;;;;;;;;;6136682;23;20043;-83
2022/11/24 08:24:34;;;;;;;8.23;2.28;;;7.50;99.90;;;;;;6128525;23;20128;-83
2022/11/24 08:27:00;;;;;;;9.57;2.30;;;7.50;99.90;;;;;;6103817;23;20031;-85
2022/11/24 08:29:30;;;;;;;9.13;2.20;;;7.50;99.90;;;;;;6127307;23;20208;-85
2022/11/24 08:31:56;;;;;;;10.95;2.17;;;7.60;99.90;;;;;;6162199;23;20013;-83
2022/11/24 08:34:25;;;;;;;8.73;2.08;;;7.80;99.90;;;;;;6126436;23;20096;-83
2022/11/24 08:36:51;;;;;;;6.93;2.10;;;7.80;99.90;;;;;;6099246;23;20032;-83
2022/11/24 08:39:17;;;;;;;10.68;2.25;;;9.30;99.90;;;;;;6156682;23;20281;-82
2022/11/24 08:41:44;;;;;;;9.50;2.25;;;;;;;;;;6123861;23;20044;-83
2022/11/24 08:44:10;;;;;;;10.00;2.35;;;8.40;99.90;;;;;;6173220;23;20047;-83
2022/11/24 08:46:36;;;;;;;8.68;2.10;;;8.60;99.90;;;;;;6173966;23;20388;-84
2022/11/24 08:49:02;;;;;;;7.65;1.90;;;8.60;99.90;;;;;;6149387;23;20021;-83
2022/11/24 08:51:28;;;;;;;9.07;1.67;;;8.60;99.90;;;;;;6172735;23;20599;-83
2022/11/24 08:53:58;;;;;;;7.35;2.10;;;9.40;99.90;;;;;;6100315;23;20024;-83
2022/11/24 08:56:29;;;;;;;9.52;1.90;;;9.10;99.90;;;;;;6147839;23;20031;-83
2022/11/24 08:58:56;;;;;;;9.93;1.80;;;9.10;99.90;;;;;;6124733;23;20024;-83
2022/11/24 09:01:22;;;;;;;8.75;1.88;;;9.00;99.90;;;;;;6148492;23;20103;-83
2022/11/24 09:03:49;;;;;;;9.35;1.90;;;10.10;99.90;;;;;;6149387;23;20175;-83
2022/11/24 09:06:17;;;;;;;8.98;2.20;;;9.10;99.90;;;;;;6147690;23;20797;-83
2022/11/24 09:08:43;;;;;;;7.15;1.63;;;8.90;99.90;;;;;;6173581;23;20068;-83
2022/11/24 09:11:12;;;;;;;9.32;1.67;;;8.60;99.90;;;;;;6149157;23;20433;-82
2022/11/24 09:13:39;;;;;;;6.07;1.88;;;7.70;99.90;;;;;;6149544;23;20067;-82
2022/11/24 09:16:10;;;;;;;6.70;1.38;;;9.00;99.90;;;;;;6148529;23;20054;-83
2022/11/24 09:18:36;;;;;;;6.32;2.00;;;8.90;99.90;;;;;;6148934;23;20063;-83
2022/11/24 09:21:18;;;;;;;6.63;1.52;;;8.80;99.90;;;;;;6148880;23;20433;-83
2022/11/24 09:23:47;;;;;;;8.50;2.92;;;8.70;99.90;;;;;;6149082;23;20017;-83
2022/11/24 09:26:25;;;;;;;9.00;1.55;;;8.50;99.90;;;;;;6146938;23;20049;-84
2022/11/24 09:28:53;;;;;;;7.75;1.85;;;8.70;99.90;;;;;;6146831;23;20052;-83
2022/11/24 09:31:20;;;;;;;11.07;1.70;;;8.70;99.90;;;;;;6172027;23;20016;-83
2022/11/24 09:33:45;;;;;;;6.72;1.65;;;8.80;99.90;;;;;;6171442;23;20017;-83
2022/11/24 09:36:12;;;;;;;8.82;1.70;;;8.80;99.90;;;;;;6122242;23;20017;-81
2022/11/24 09:38:38;;;;;;;9.30;1.77;;;8.90;99.90;;;;;;6146326;23;20021;-81
2022/11/24 09:41:16;;;;;;;8.93;1.50;;;8.90;99.90;;;;;;6171526;23;20040;-82
2022/11/24 09:44:14;;;;;;;8.70;2.05;;;9.00;99.90;;;;;;6145940;23;20027;-82
2022/11/24 09:46:51;;;;;;;10.45;1.92;;;9.20;99.90;;;;;;6130669;23;20020;-82
2022/11/24 09:49:30;;;;;;;6.38;1.52;;;9.40;99.90;;;;;;6142206;23;20480;-82
2022/11/24 09:51:57;;;;;;;6.18;2.28;;;9.80;99.90;;;;;;6166357;23;20071;-78
2022/11/24 09:54:27;;;;;;;8.23;2.10;;;8.50;99.90;;;;;;6092654;23;20068;-86
2022/11/24 09:56:57;;;;;;;5.53;1.73;;;9.80;99.90;;;;;;6143011;23;20421;-82
2022/11/24 09:59:26;;;;;;;8.10;1.90;;;10.00;99.90;;;;;;6117427;23;20410;-83
2022/11/24 10:01:53;;;;;;;9.35;1.77;;;10.00;99.90;;;;;;6118178;23;20056;-82
2022/11/24 10:04:28;;;;;;;13.48;2.60;;;9.80;99.90;;;;;;6116790;23;20014;-81
2022/11/24 10:07:15;;;;;;;5.73;1.77;;;9.80;99.90;;;;;;6166087;23;20017;-82
2022/11/24 10:09:53;;;;;;;9.38;2.33;;;9.90;99.90;;;;;;6166785;23;20040;-82
2022/11/24 10:12:56;;;;;;;11.30;2.13;;;10.30;99.90;;;;;;6169249;23;20064;-83
2022/11/24 10:15:26;;;;;;;5.95;1.85;;;10.50;99.90;;;;;;6118779;23;20322;-82
2022/11/24 10:18:13;;;;;;;10.95;2.17;;;10.50;99.90;;;;;;6167439;23;20057;-82
2022/11/24 10:20:51;;;;;;;10.18;2.47;;;10.30;99.90;;;;;;6119166;23;20147;-83
2022/11/24 10:23:26;;;;;;;6.90;2.40;;;10.20;99.90;;;;;;6119696;23;20347;-81
2022/11/24 10:26:10;;;;;;;5.88;1.98;;;10.40;99.90;;;;;;6119779;23;20056;-81
2022/11/24 10:28:47;;;;;;;5.38;1.85;;;10.50;99.90;;;;;;6129409;23;20037;-82
2022/11/24 10:31:30;;;;;;;8.02;2.40;;;10.60;99.90;;;;;;6154915;23;20616;-83
2022/11/24 10:34:13;;;;;;;5.25;2.08;;;10.70;99.90;;;;;;6165710;23;20100;-82
2022/11/24 10:36:53;;;;;;;8.35;2.75;;;10.80;99.90;;;;;;6117730;23;20031;-82
2022/11/24 10:39:34;;;;;;;7.53;2.22;;;10.90;99.90;;;;;;6175489;23;20545;-83
2022/11/24 10:42:23;;;;;;;6.05;2.20;;;11.10;99.90;;;;;;6180705;23;20028;-83
2022/11/24 10:45:02;;;;;;;5.60;1.95;;;11.00;99.90;;;;;;6117889;23;20018;-91
2022/11/24 10:47:29;;;;;;;6.38;2.40;;;10.70;99.90;;;;;;6119399;23;20030;-83
2022/11/24 10:50:04;;;;;;;9.13;2.10;;;10.50;99.90;;;;;;6118044;23;20021;-82
2022/11/24 10:52:41;;;;;;;7.13;2.45;;;10.40;99.90;;;;;;6118005;23;20021;-83
2022/11/24 10:55:08;;;;;;;6.78;2.10;;;10.30;99.90;;;;;;6144332;23;20021;-85
2022/11/24 10:57:39;;;;;;;7.10;2.30;;;10.20;99.90;;;;;;6117275;23;20021;-84
2022/11/24 11:00:29;;;;;;;7.30;2.50;;;10.10;99.90;;;;;;6117685;23;20021;-81
2022/11/24 11:03:20;;;;;;;7.22;2.28;;;10.10;99.90;;;;;;6142343;23;20525;-81
2022/11/24 11:06:10;;;;;;;7.28;2.85;;;10.00;99.90;;;;;;6141590;23;20073;-79
2022/11/24 11:08:36;;;;;;;10.50;2.95;;;10.00;99.90;;;;;;6148862;23;20371;-85
2022/11/24 11:11:22;;;;;;;9.70;3.08;;;10.00;99.90;;;;;;6122827;23;20025;-85
2022/11/24 11:14:02;;;;;;;7.80;2.45;;;10.00;99.90;;;;;;6118483;23;20036;-85
2022/11/24 11:16:54;;;;;;;10.23;3.38;;;9.80;99.90;;;;;;6116813;23;20021;-84
2022/11/24 11:19:41;;;;;;;6.60;2.95;;;9.80;99.90;;;;;;6144203;23;20029;-85
2022/11/24 11:22:10;;;;;;;9.38;2.30;;;9.80;99.90;;;;;;6118208;23;20030;-81
2022/11/24 11:24:41;;;;;;;9.18;2.50;;;9.70;99.90;;;;;;6116343;23;20021;-81
2022/11/24 11:27:22;;;;;;;7.05;3.15;;;9.70;99.90;;;;;;6142076;23;20049;-80
2022/11/24 11:29:48;;;;;;;8.93;3.40;;;9.50;99.90;;;;;;6142215;23;20052;-81
2022/11/24 11:32:23;;;;;;;11.02;2.75;;;9.10;99.90;;;;;;6117396;23;20021;-85
2022/11/24 11:34:51;;;;;;;12.65;3.03;;;10.10;99.90;;;;;;6139801;23;20096;-85
2022/11/24 11:37:18;;;;;;;9.15;2.75;;;9.60;99.90;;;;;;6117853;23;20018;-83
2022/11/24 11:39:53;;;;;;;7.20;2.63;;;9.60;99.90;;;;;;6112165;23;20029;-86
2022/11/24 11:42:33;;;;;;;9.65;3.10;;;9.60;99.90;;;;;;6118368;23;20033;-84
2022/11/24 11:45:17;;;;;;;9.15;3.13;;;9.60;99.90;;;;;;6168269;23;20070;-84
2022/11/24 11:47:45;;;;;;;9.98;3.05;;;9.60;99.90;;;;;;6144949;23;20048;-83
2022/11/24 11:50:19;;;;;;;11.93;3.35;;;9.70;99.90;;;;;;6119964;23;20033;-84
2022/11/24 11:53:22;;;;;;;9.85;3.30;;;9.60;99.90;;;;;;6119137;23;20032;-84
2022/11/24 11:56:22;;;;;;;11.90;3.88;;;9.60;99.90;;;;;;6119046;23;20022;-85
2022/11/24 11:58:58;;;;;;;9.70;3.15;;;9.60;99.90;;;;;;6117605;23;20025;-86
2022/11/24 12:02:02;;;;;;;11.40;3.75;;;9.70;99.90;;;;;;6116573;23;20033;-84
2022/11/24 12:04:52;;;;;;;10.32;2.88;;;9.70;99.90;;;;;;6116093;23;20025;-84
2022/11/24 12:07:39;;;;;;;15.90;3.40;;;9.70;99.90;;;;;;6116885;23;20061;-85
2022/11/24 12:10:17;;;;;;;11.05;3.00;;;9.70;99.90;;;;;;6118020;23;20100;-84
2022/11/24 12:13:39;;;;;;;10.90;2.95;;;9.80;99.90;;;;;;6118744;23;20021;-85
2022/11/24 12:16:23;;;;;;;10.65;3.33;;;10.30;99.90;;;;;;6033777;23;20486;-86
2022/11/24 12:19:04;;;;;;;10.43;2.88;;;9.80;99.90;;;;;;6033102;23;20058;-87
2022/11/24 12:21:50;;;;;;;13.73;3.08;;;9.80;99.90;;;;;;6105834;23;20025;-86
2022/11/24 12:24:47;;;;;;;7.97;2.63;;;9.80;99.90;;;;;;6125509;23;20069;-86
2022/11/24 12:27:40;;;;;;;7.82;3.17;;;9.80;99.90;;;;;;6151026;23;20106;-85
2022/11/24 12:30:18;;;;;;;9.95;3.13;;;9.80;99.90;;;;;;6148656;23;20032;-86
2022/11/24 12:33:26;;;;;;;14.10;3.10;;;9.90;99.90;;;;;;6098721;23;20030;-86
2022/11/24 12:36:11;;;;;;;14.32;3.03;;;9.90;99.90;;;;;;6114404;23;20029;-86
2022/11/24 12:39:04;;;;;;;12.20;2.83;;;9.90;99.90;;;;;;6138271;23;20030;-88
2022/11/24 12:41:59;;;;;;;11.05;2.83;;;10.70;99.90;;;;;;6097690;23;20080;-86
2022/11/24 12:44:44;;;;;;;10.98;2.50;;;9.90;99.90;;;;;;6150246;23;20025;-85
2022/11/24 12:47:55;;;;;;;11.35;2.38;;;9.90;99.90;;;;;;6112881;23;20018;-84
2022/11/24 12:50:28;;;;;;;11.52;3.08;;;10.00;99.90;;;;;;6085845;23;20002;-85
2022/11/24 12:53:10;;;;;;;9.05;2.47;;;10.00;99.90;;;;;;6104756;23;20128;-85
2022/11/24 12:55:37;;;;;;;13.75;2.75;;;10.00;99.90;;;;;;6095082;23;20092;-85
2022/11/24 12:58:21;;;;;;;11.57;3.05;;;10.00;99.90;;;;;;6145131;23;20021;-86
2022/11/24 13:01:20;;;;;;;13.90;2.88;;;10.00;99.90;;;;;;6096439;23;20433;-87
2022/11/24 13:03:54;;;;;;;15.55;2.95;;;10.00;99.90;;;;;;6097281;23;20017;-87
2022/11/24 13:06:26;;;;;;;12.63;3.05;;;10.00;99.90;;;;;;6098712;23;20449;-87
2022/11/24 13:08:52;;;;;;;9.63;3.00;;;10.00;99.90;;;;;;6098290;23;20021;-86
2022/11/24 13:11:21;;;;;;;13.05;3.30;;;10.00;99.90;;;;;;6121734;23;20659;-85